Fresno, CA

1:06 PM PST on January 18, 2017 (GMT -0800)
University Portals | | Change Station
Active Advisory: Wind Advisory

Elev 338 ft 36.82 °N, 119.76 °W | Updated 10 seconds ago

Overcast
Overcast
53.8 °F
Feels Like 53.8 °F
N
0.0
Wind Variable Wind from ENE
Gusts 0.0 mph

Today
High -- | Low -- °F
--% Chance of Precip.
Yesterday
High -- | Low -- °F
Precip. -- in
Pressure 30.10 in
Visibility 7.0 miles
Clouds Overcast 10000 ft
Dew Point 51 °F
Humidity 89%
Rainfall 0.00 in
Snow Depth Not available.
7:09 AM 5:10 PM
Waning Gibbous, 60% visible
METAR KFAT 182053Z 02005KT 7SM OVC100 13/06 A3010 RMK AO2 RAE15 SLP192 MTNS OBSC ALQDS P0000 60000 T01280061 53006
Pressure 30.10 in
Visibility 7.0 miles
Clouds Overcast 10000 ft
Dew Point 51 °F
Humidity 89%
Rainfall 0.00 in
Snow Depth Not available.
7:09 AM 5:10 PM
Waning Gibbous, 60% visible
METAR KFAT 182053Z 02005KT 7SM OVC100 13/06 A3010 RMK AO2 RAE15 SLP192 MTNS OBSC ALQDS P0000 60000 T01280061 53006

Get Your Daily Forecast Email!

Thanks for signing up!

Be on the lookout for a verification email in your inbox.

You'll start receiving the daily forecast at 8 AM.

×

10-Day Weather Forecast

Almanac

Astronomy

Jan. 18, 2017 Rise Set
Actual Time
Civil Twilight
Nautical Twilight
Astronomical Twilight
Moon
Length of Visible Light
Length of Day
Tomorrow will be .
, % of the Moon is Illuminated

Today's Extremes

State Highs State Lows

Community

WunderPhotos

Upload Photos

1,962,540 photos uploaded!

WunderBlog® & News

Nearby

Air Quality

  Air Quality AQ Index Pollutant
Not available.

Snow Depth

Station Depth Elevation

Earthquake Activity

City Distance Mag. Time & Date
Minimum magnitude displayed is 2.5.

Coastal Water Temperatures

Place Temperature

Stations

Nearby Weather Stations

Station Location Temp. Windchill Dew Point Humidity Wind Precip. Elev Updated Type
                   

Watches & Warnings

Wind Advisory
Issued: 12:16 PM PST Jan. 18, 2017 – National Weather Service

... Wind Advisory remains in effect from 4 PM this afternoon to
2 am PST Thursday...

* winds... southeast 15 to 25 mph with gusts up to 40mph.

* Timing... winds will increase this afternoon with strongest
gusts in the evening.

* Impacts... gusty winds will blow around unsecured objects. Tree
limbs could be blown down and a few power outages may result.

Precautionary/preparedness actions...

A Wind Advisory means that winds of 35 mph are expected. Winds
this strong can make driving difficult... especially for high
profile vehicles. Use extra caution.